Time;durP1;ratioP1;P1;durP2;ratioP2;P2;SDS_P1;SDS_P2;PMS_P1;PMS_P2;Temp;Humidity;BMP_temperature;BMP_pressure;BME280_temperature;BME280_humidity;BME280_pressure;Samples;Min_cycle;Max_cycle;Signal;HPM_P1;HPM_P2
2021/05/03 00:01:59;;;;;;;8.35;3.25;;;6.30;78.90;;;;;;5023821;28;20102;-80
2021/05/03 00:04:24;;;;;;;7.03;3.70;;;6.30;79.10;;;;;;4992338;28;20105;-81
2021/05/03 00:06:50;;;;;;;9.93;3.65;;;6.30;79.10;;;;;;5024015;28;20550;-80
2021/05/03 00:09:15;;;;;;;7.40;3.78;;;6.30;79.20;;;;;;5024174;28;20022;-81
2021/05/03 00:11:41;;;;;;;6.05;3.65;;;6.30;79.60;;;;;;5024885;28;20033;-81
2021/05/03 00:14:07;;;;;;;8.50;3.95;;;6.30;79.60;;;;;;5027765;28;20477;-80
2021/05/03 00:16:32;;;;;;;8.05;3.72;;;6.30;80.00;;;;;;5027419;28;20105;-81
2021/05/03 00:18:58;;;;;;;6.30;3.30;;;6.20;79.80;;;;;;5027600;28;20018;-79
2021/05/03 00:21:24;;;;;;;7.32;3.95;;;6.20;79.80;;;;;;5027399;28;20029;-80
2021/05/03 00:23:49;;;;;;;9.40;4.13;;;6.20;80.10;;;;;;5027551;28;20046;-80
2021/05/03 00:26:16;;;;;;;14.65;3.92;;;6.10;79.90;;;;;;5027286;28;20160;-78
2021/05/03 00:28:42;;;;;;;9.20;3.90;;;6.10;80.40;;;;;;5027290;28;20033;-80
2021/05/03 00:31:08;;;;;;;8.88;4.10;;;6.10;80.00;;;;;;5027293;28;20065;-81
2021/05/03 00:33:34;;;;;;;6.50;3.90;;;6.10;80.60;;;;;;5027328;28;20019;-80
2021/05/03 00:36:00;;;;;;;8.55;4.00;;;6.10;80.60;;;;;;5027193;28;20522;-80
2021/05/03 00:38:25;;;;;;;6.80;3.97;;;6.00;80.80;;;;;;5027097;28;20022;-81
2021/05/03 00:40:52;;;;;;;7.18;4.47;;;6.00;81.10;;;;;;4994344;28;20129;-80
2021/05/03 00:43:19;;;;;;;7.63;4.35;;;5.90;81.00;;;;;;4995824;28;20026;-80
2021/05/03 00:45:47;;;;;;;12.48;5.10;;;5.90;81.20;;;;;;4995449;28;20022;-79
2021/05/03 00:48:14;;;;;;;8.18;4.00;;;5.90;81.60;;;;;;5027078;28;20486;-79
2021/05/03 00:50:40;;;;;;;8.38;3.83;;;5.90;81.70;;;;;;4995463;28;20050;-79
2021/05/03 00:53:06;;;;;;;8.55;4.25;;;5.90;81.80;;;;;;5026970;28;20431;-79
2021/05/03 00:55:32;;;;;;;8.48;4.28;;;5.90;81.70;;;;;;5027233;28;20052;-79
2021/05/03 00:57:58;;;;;;;9.02;4.80;;;5.80;81.60;;;;;;5028301;28;20463;-79
2021/05/03 01:00:26;;;;;;;7.28;4.22;;;5.80;81.90;;;;;;5026699;28;20027;-79
2021/05/03 01:02:51;;;;;;;12.13;5.50;;;5.80;81.90;;;;;;5026821;28;20054;-80
2021/05/03 01:05:20;;;;;;;7.53;3.90;;;5.80;82.20;;;;;;5026534;28;20057;-80
2021/05/03 01:07:47;;;;;;;7.10;4.43;;;5.80;82.30;;;;;;4995885;28;20064;-81
2021/05/03 01:10:14;;;;;;;10.55;4.97;;;5.80;82.50;;;;;;4994392;28;20022;-79
2021/05/03 01:12:40;;;;;;;11.38;4.43;;;5.70;82.50;;;;;;5032018;28;20026;-78
2021/05/03 01:15:08;;;;;;;8.05;4.32;;;5.70;82.40;;;;;;5034918;28;20101;-78
2021/05/03 01:17:35;;;;;;;6.80;4.43;;;5.70;82.50;;;;;;5001516;28;20014;-78
2021/05/03 01:20:12;;;;;;;11.88;5.10;;;5.70;82.40;;;;;;5027768;28;20026;-79
2021/05/03 01:22:39;;;;;;;8.50;4.45;;;5.70;82.30;;;;;;5025521;28;20014;-80
2021/05/03 01:25:06;;;;;;;7.13;4.68;;;5.70;82.70;;;;;;4992794;28;20050;-79
2021/05/03 01:27:34;;;;;;;7.82;4.82;;;5.70;82.60;;;;;;5025881;28;20057;-79
2021/05/03 01:30:01;;;;;;;8.68;5.13;;;5.70;82.50;;;;;;5026105;28;20030;-79
2021/05/03 01:32:27;;;;;;;10.65;5.47;;;5.60;82.60;;;;;;5025838;28;20034;-80
2021/05/03 01:34:52;;;;;;;13.00;5.85;;;5.60;82.90;;;;;;5026044;28;20022;-80
2021/05/03 01:37:18;;;;;;;12.20;6.07;;;5.60;83.30;;;;;;5025825;28;20029;-79
2021/05/03 01:39:44;;;;;;;9.93;6.45;;;5.60;83.80;;;;;;5025883;28;20022;-80
2021/05/03 01:42:09;;;;;;;13.77;6.97;;;5.60;84.30;;;;;;5026017;28;20049;-79
2021/05/03 01:44:35;;;;;;;11.90;6.63;;;5.50;84.50;;;;;;4992925;28;20076;-80
2021/05/03 01:47:01;;;;;;;9.95;6.00;;;5.50;84.90;;;;;;5025784;28;20080;-79
2021/05/03 01:49:28;;;;;;;8.88;5.68;;;5.50;84.80;;;;;;5025525;28;20049;-79
2021/05/03 01:51:54;;;;;;;9.88;5.85;;;5.50;84.90;;;;;;4994016;28;20026;-80
2021/05/03 01:54:20;;;;;;;10.77;6.22;;;5.50;84.80;;;;;;4994044;28;20019;-79
2021/05/03 01:56:46;;;;;;;9.85;6.28;;;5.50;85.60;;;;;;5025745;28;20014;-80
2021/05/03 01:59:12;;;;;;;14.95;7.45;;;5.50;85.10;;;;;;5025851;28;20056;-80
2021/05/03 02:01:39;;;;;;;11.50;6.40;;;5.50;85.20;;;;;;5025397;28;20018;-79
2021/05/03 02:04:06;;;;;;;12.90;6.00;;;5.50;85.30;;;;;;4994137;28;20030;-79
2021/05/03 02:06:32;;;;;;;12.32;7.25;;;5.40;85.20;;;;;;4993822;28;20101;-80
2021/05/03 02:08:58;;;;;;;10.50;6.93;;;5.40;85.00;;;;;;5025543;28;20090;-79
2021/05/03 02:11:24;;;;;;;12.38;7.20;;;5.40;85.30;;;;;;5025072;28;20034;-78
2021/05/03 02:13:49;;;;;;;11.63;6.65;;;5.40;84.50;;;;;;5025323;28;20076;-80
2021/05/03 02:16:15;;;;;;;12.52;8.55;;;5.30;84.80;;;;;;5025187;28;20050;-80
2021/05/03 02:18:41;;;;;;;11.98;7.65;;;5.30;85.30;;;;;;5025107;28;20022;-80
2021/05/03 02:21:06;;;;;;;12.13;7.30;;;5.30;85.70;;;;;;5025079;28;20443;-79
2021/05/03 02:23:32;;;;;;;11.13;7.45;;;5.30;85.40;;;;;;5025130;28;20023;-79
2021/05/03 02:25:57;;;;;;;14.45;8.52;;;5.30;85.50;;;;;;5024893;28;20022;-79
2021/05/03 02:28:23;;;;;;;13.75;8.82;;;5.20;85.80;;;;;;4993739;28;20099;-78
2021/05/03 02:30:48;;;;;;;10.50;7.20;;;5.20;86.00;;;;;;5025232;28;20415;-79
2021/05/03 02:33:14;;;;;;;11.43;7.30;;;5.20;85.70;;;;;;4993654;28;20037;-79
2021/05/03 02:35:40;;;;;;;11.18;8.00;;;5.20;85.90;;;;;;5024517;28;20475;-78
2021/05/03 02:38:08;;;;;;;12.30;8.75;;;5.20;86.20;;;;;;4993615;28;20064;-80
2021/05/03 02:40:36;;;;;;;17.08;8.57;;;5.20;86.50;;;;;;5024559;28;20042;-79
2021/05/03 02:43:03;;;;;;;16.15;9.48;;;5.20;87.30;;;;;;5025116;28;20057;-80
2021/05/03 02:45:29;;;;;;;13.50;8.93;;;5.20;87.40;;;;;;4993142;28;20026;-79
2021/05/03 02:47:55;;;;;;;15.15;9.68;;;5.20;86.80;;;;;;4991833;28;20038;-80
2021/05/03 02:50:22;;;;;;;15.55;9.15;;;5.20;87.10;;;;;;5024915;28;20030;-79
2021/05/03 02:52:49;;;;;;;11.98;8.15;;;5.20;87.10;;;;;;5025210;28;20348;-78
2021/05/03 02:55:15;;;;;;;15.90;9.70;;;5.20;86.60;;;;;;5025350;28;20053;-79
2021/05/03 02:57:43;;;;;;;17.92;10.13;;;5.20;86.90;;;;;;5009969;28;20022;-79
2021/05/03 03:00:13;;;;;;;14.20;9.90;;;5.20;87.10;;;;;;5011626;28;20026;-79
2021/05/03 03:02:38;;;;;;;15.63;9.18;;;5.20;87.10;;;;;;5011481;28;20641;-80
2021/05/03 03:05:04;;;;;;;14.20;9.38;;;5.20;87.20;;;;;;5011731;28;20037;-80
2021/05/03 03:07:30;;;;;;;13.40;8.82;;;5.20;86.90;;;;;;5012403;28;20029;-80
2021/05/03 03:09:56;;;;;;;12.85;8.63;;;5.20;86.90;;;;;;5019746;28;20029;-78
2021/05/03 03:12:21;;;;;;;14.00;9.00;;;5.20;87.00;;;;;;5015948;28;20336;-80
2021/05/03 03:14:47;;;;;;;14.63;9.65;;;5.20;86.90;;;;;;5022565;28;20513;-78
2021/05/03 03:17:15;;;;;;;15.43;9.68;;;5.20;86.80;;;;;;5013090;28;20473;-80
2021/05/03 03:19:41;;;;;;;15.98;9.77;;;5.20;87.00;;;;;;5011373;28;20026;-80
2021/05/03 03:22:08;;;;;;;15.65;9.85;;;5.20;87.00;;;;;;4994699;28;20022;-80
2021/05/03 03:24:34;;;;;;;14.13;9.88;;;5.20;86.80;;;;;;5010667;28;20079;-80
2021/05/03 03:27:00;;;;;;;15.48;10.52;;;5.20;86.70;;;;;;5011159;28;20072;-81
2021/05/03 03:29:26;;;;;;;16.95;11.15;;;5.20;86.80;;;;;;5010865;28;20026;-81
2021/05/03 03:31:52;;;;;;;17.40;11.02;;;5.20;86.80;;;;;;5010978;28;20025;-80
2021/05/03 03:34:18;;;;;;;19.48;10.90;;;5.10;86.70;;;;;;5011092;28;20014;-81
2021/05/03 03:36:43;;;;;;;28.38;14.52;;;5.10;86.70;;;;;;5011054;28;20148;-80
2021/05/03 03:39:09;;;;;;;28.02;14.70;;;5.10;86.60;;;;;;5011157;28;20447;-80
2021/05/03 03:41:35;;;;;;;18.73;10.85;;;5.10;86.50;;;;;;5010649;28;20053;-80
2021/05/03 03:44:02;;;;;;;19.00;10.73;;;5.10;86.50;;;;;;5010970;28;20022;-81
2021/05/03 03:46:27;;;;;;;18.60;10.98;;;5.10;86.50;;;;;;5011268;28;20021;-82
2021/05/03 03:48:53;;;;;;;18.55;11.82;;;5.10;86.50;;;;;;5014864;28;20339;-82
2021/05/03 03:51:19;;;;;;;17.80;11.27;;;5.10;86.40;;;;;;5015056;28;20033;-82
2021/05/03 03:53:44;;;;;;;22.38;12.65;;;5.10;86.40;;;;;;5015095;28;20042;-82
2021/05/03 03:56:12;;;;;;;22.55;12.65;;;5.10;86.50;;;;;;5010523;28;20094;-82
2021/05/03 03:58:39;;;;;;;18.70;10.40;;;5.10;86.60;;;;;;4996232;28;20101;-81
2021/05/03 04:01:05;;;;;;;17.30;9.93;;;5.20;87.30;;;;;;4995345;28;20358;-83
2021/05/03 04:03:31;;;;;;;15.23;9.98;;;5.10;86.30;;;;;;5027850;28;20455;-81
2021/05/03 04:14:20;;;;;;;12.35;9.25;;;5.20;86.30;;;;;;4974443;28;20027;-82
2021/05/03 04:24:55;;;;;;;13.93;9.63;;;5.10;85.90;;;;;;4995942;28;20046;-81
2021/05/03 04:27:21;;;;;;;18.17;11.32;;;5.20;86.30;;;;;;5027701;28;20026;-81
2021/05/03 04:29:47;;;;;;;14.88;10.55;;;5.10;85.60;;;;;;4995961;28;20427;-81
2021/05/03 04:32:13;;;;;;;15.68;11.05;;;5.10;85.90;;;;;;4994684;28;20042;-82
2021/05/03 04:34:38;;;;;;;19.75;11.85;;;5.10;85.80;;;;;;4995850;28;20029;-80
2021/05/03 04:37:04;;;;;;;17.23;10.73;;;5.10;85.60;;;;;;4994994;28;20042;-80
2021/05/03 04:39:30;;;;;;;18.55;12.45;;;5.10;85.60;;;;;;4997052;28;20018;-80
2021/05/03 04:41:56;;;;;;;17.23;12.10;;;5.10;85.40;;;;;;4997178;28;20105;-81
2021/05/03 04:44:21;;;;;;;15.48;11.30;;;5.10;85.20;;;;;;4996986;28;20022;-81
2021/05/03 04:46:47;;;;;;;19.35;12.73;;;5.10;85.20;;;;;;4995593;28;20029;-81
2021/05/03 04:49:12;;;;;;;17.90;11.90;;;5.10;85.10;;;;;;4994845;28;20030;-81
2021/05/03 04:51:38;;;;;;;18.80;12.00;;;5.20;84.90;;;;;;4996226;28;20477;-80
2021/05/03 04:54:04;;;;;;;18.58;12.43;;;5.10;84.90;;;;;;4999418;28;20062;-82
2021/05/03 04:56:30;;;;;;;19.20;11.98;;;5.20;84.80;;;;;;4994233;28;20026;-82
2021/05/03 04:58:55;;;;;;;15.15;10.68;;;5.20;84.70;;;;;;4994550;28;20030;-82
2021/05/03 05:01:24;;;;;;;20.52;11.55;;;5.20;84.60;;;;;;4994716;28;20022;-82
2021/05/03 05:03:50;;;;;;;22.55;11.70;;;5.30;84.60;;;;;;4997245;28;20097;-82
2021/05/03 05:06:15;;;;;;;15.52;11.38;;;5.30;84.30;;;;;;5010472;28;20026;-80
2021/05/03 05:08:41;;;;;;;18.35;11.70;;;5.30;83.90;;;;;;4997168;28;20371;-82
2021/05/03 05:11:07;;;;;;;18.70;11.63;;;5.30;83.60;;;;;;5008450;28;20018;-79
2021/05/03 05:13:32;;;;;;;18.38;10.98;;;5.30;84.30;;;;;;5000597;28;20019;-81
2021/05/03 05:15:58;;;;;;;14.75;10.32;;;5.40;83.70;;;;;;4994118;28;20018;-81
2021/05/03 05:18:24;;;;;;;17.60;11.52;;;5.40;83.60;;;;;;4993848;28;20018;-82
2021/05/03 05:20:50;;;;;;;15.43;10.02;;;5.40;83.50;;;;;;4993654;28;20080;-82
2021/05/03 05:23:16;;;;;;;16.40;11.10;;;5.50;83.50;;;;;;4993857;28;20026;-82
2021/05/03 05:25:41;;;;;;;15.98;10.02;;;5.50;83.10;;;;;;4993584;28;20023;-82
2021/05/03 05:28:07;;;;;;;15.60;10.85;;;5.60;84.00;;;;;;4993729;28;20101;-82
2021/05/03 05:30:33;;;;;;;17.33;10.95;;;5.60;83.10;;;;;;4993366;28;20050;-82
2021/05/03 05:32:58;;;;;;;15.85;10.88;;;5.60;83.00;;;;;;4993499;28;20019;-83
2021/05/03 05:35:24;;;;;;;15.98;9.23;;;5.60;82.70;;;;;;4993397;28;20348;-81
2021/05/03 05:37:50;;;;;;;16.48;9.68;;;5.60;82.50;;;;;;5026010;28;20022;-82
2021/05/03 05:40:15;;;;;;;18.27;10.23;;;5.70;82.30;;;;;;5025671;28;20038;-81
2021/05/03 05:42:41;;;;;;;18.35;11.25;;;5.70;82.30;;;;;;4993206;28;20023;-80
2021/05/03 05:45:07;;;;;;;16.23;10.32;;;5.80;81.60;;;;;;4993409;28;20026;-82
2021/05/03 05:47:33;;;;;;;16.70;10.43;;;5.80;81.30;;;;;;4993104;28;20018;-82
2021/05/03 05:49:58;;;;;;;16.92;10.07;;;5.80;81.50;;;;;;4993237;28;20084;-81
2021/05/03 05:52:24;;;;;;;16.63;9.75;;;5.90;82.00;;;;;;4993240;28;20019;-79
2021/05/03 05:54:50;;;;;;;15.77;10.18;;;5.90;81.30;;;;;;4993030;28;20024;-82
2021/05/03 05:57:15;;;;;;;17.23;10.07;;;5.90;81.20;;;;;;4993072;28;20343;-82
2021/05/03 05:59:41;;;;;;;17.85;10.05;;;6.00;81.00;;;;;;4992637;28;20137;-81
2021/05/03 06:02:07;;;;;;;15.93;9.60;;;6.00;80.50;;;;;;4992818;28;20018;-82
2021/05/03 06:04:35;;;;;;;17.25;10.25;;;6.10;80.60;;;;;;5025614;28;20029;-81
2021/05/03 06:07:01;;;;;;;15.70;10.18;;;6.10;80.70;;;;;;5000504;28;20022;-81
2021/05/03 06:09:27;;;;;;;19.38;12.93;;;6.10;81.10;;;;;;5004161;28;20347;-81
2021/05/03 06:11:52;;;;;;;17.50;9.40;;;6.20;80.60;;;;;;5001255;28;20016;-82
2021/05/03 06:14:18;;;;;;;14.85;9.68;;;6.20;80.00;;;;;;4999612;28;20026;-82
2021/05/03 06:16:43;;;;;;;16.98;9.77;;;6.30;80.00;;;;;;5002116;28;20018;-82
2021/05/03 06:19:09;;;;;;;13.20;9.65;;;6.30;80.10;;;;;;5001078;28;20069;-82
2021/05/03 06:21:35;;;;;;;16.48;10.32;;;6.30;79.40;;;;;;5000856;28;20589;-82
2021/05/03 06:24:01;;;;;;;15.63;9.65;;;6.40;79.70;;;;;;5002288;28;20451;-82
2021/05/03 06:26:26;;;;;;;15.55;10.05;;;6.40;79.30;;;;;;5012323;28;20087;-82
2021/05/03 06:28:52;;;;;;;14.30;9.80;;;6.50;79.20;;;;;;5011827;28;20021;-82
2021/05/03 06:31:20;;;;;;;14.80;9.05;;;6.50;78.60;;;;;;5011665;28;20175;-81
2021/05/03 06:33:46;;;;;;;13.65;9.18;;;6.60;78.70;;;;;;5011462;28;20026;-81
2021/05/03 06:36:15;;;;;;;15.93;9.70;;;6.60;78.70;;;;;;5011835;28;20022;-82
2021/05/03 06:38:40;;;;;;;13.07;8.57;;;6.70;78.00;;;;;;5011693;28;20025;-82
2021/05/03 06:41:06;;;;;;;15.60;8.93;;;6.70;77.50;;;;;;5013390;28;20048;-82
2021/05/03 06:43:32;;;;;;;12.73;8.73;;;6.80;77.20;;;;;;5014347;28;20014;-81
2021/05/03 06:45:58;;;;;;;15.38;9.05;;;6.90;75.90;;;;;;5014150;28;20518;-80
2021/05/03 06:48:25;;;;;;;12.93;8.93;;;6.90;76.10;;;;;;5013169;28;20451;-79
2021/05/03 06:50:54;;;;;;;13.70;8.43;;;7.00;75.10;;;;;;5014309;28;20102;-81
2021/05/03 06:53:19;;;;;;;12.30;7.40;;;7.10;75.00;;;;;;5011562;28;20029;-81
2021/05/03 06:55:46;;;;;;;14.15;7.20;;;7.20;74.70;;;;;;5010310;28;20375;-80
2021/05/03 06:58:13;;;;;;;16.65;8.75;;;7.30;74.90;;;;;;4992719;28;20463;-80
2021/05/03 07:00:40;;;;;;;15.57;6.93;;;7.40;73.30;;;;;;4993357;28;20375;-80
2021/05/03 07:03:11;;;;;;;12.45;6.93;;;7.40;72.80;;;;;;5002260;28;20015;-80
2021/05/03 07:05:37;;;;;;;10.98;7.63;;;7.50;72.50;;;;;;4994597;28;20018;-81
2021/05/03 07:08:04;;;;;;;13.90;7.18;;;7.50;72.70;;;;;;5004073;28;20014;-79
2021/05/03 07:10:30;;;;;;;13.73;7.70;;;7.60;72.30;;;;;;4993765;28;20022;-80
2021/05/03 07:12:56;;;;;;;11.13;7.57;;;7.60;70.80;;;;;;4991990;28;20023;-80
2021/05/03 07:15:22;;;;;;;13.50;7.65;;;7.70;72.60;;;;;;4992238;28;20073;-80
2021/05/03 07:17:48;;;;;;;11.90;7.55;;;7.80;71.70;;;;;;4991565;28;20356;-79
2021/05/03 07:20:15;;;;;;;12.63;6.75;;;8.00;70.60;;;;;;4993028;28;20026;-78
2021/05/03 07:22:41;;;;;;;9.60;6.22;;;8.10;69.80;;;;;;4994600;28;20049;-79
2021/05/03 07:25:08;;;;;;;11.75;7.53;;;8.20;69.70;;;;;;4997253;28;20113;-80
2021/05/03 07:27:38;;;;;;;11.10;7.20;;;8.30;69.60;;;;;;4995380;28;20026;-80
2021/05/03 07:30:09;;;;;;;12.13;6.40;;;8.40;69.10;;;;;;4979647;28;20030;-80
2021/05/03 07:32:36;;;;;;;12.63;6.82;;;8.50;69.00;;;;;;4994971;28;20014;-79
2021/05/03 07:35:07;;;;;;;14.00;6.93;;;8.70;68.30;;;;;;4995244;28;20026;-78
2021/05/03 07:37:33;;;;;;;13.05;6.85;;;8.80;67.70;;;;;;4995193;28;20030;-78
2021/05/03 07:39:59;;;;;;;9.93;6.38;;;9.00;67.10;;;;;;5008485;28;20060;-80
2021/05/03 07:42:25;;;;;;;10.20;6.72;;;9.10;67.20;;;;;;5011764;28;20045;-80
2021/05/03 07:44:51;;;;;;;11.38;7.10;;;9.20;67.10;;;;;;5013384;28;20018;-79
2021/05/03 07:47:17;;;;;;;12.43;8.52;;;9.40;66.30;;;;;;5014323;28;20018;-78
2021/05/03 07:49:43;;;;;;;11.82;8.15;;;9.50;65.50;;;;;;5015512;28;20025;-80
2021/05/03 07:52:08;;;;;;;13.73;7.95;;;9.60;65.30;;;;;;5014400;28;20026;-79
2021/05/03 07:54:34;;;;;;;13.15;9.18;;;9.60;66.70;;;;;;5015484;28;20370;-77
2021/05/03 07:57:00;;;;;;;18.05;11.52;;;9.80;66.70;;;;;;5002872;28;20427;-79
2021/05/03 07:59:26;;;;;;;9.88;6.70;;;10.10;64.80;;;;;;4995010;28;20069;-79
2021/05/03 08:01:52;;;;;;;14.95;11.10;;;10.20;67.30;;;;;;5027257;28;20406;-78
2021/05/03 08:04:18;;;;;;;17.17;12.05;;;10.30;64.40;;;;;;4994768;28;20034;-79
2021/05/03 08:06:45;;;;;;;17.30;12.55;;;10.40;64.40;;;;;;4994114;28;20042;-79
2021/05/03 08:09:11;;;;;;;18.75;10.70;;;10.40;64.20;;;;;;4995675;28;20078;-79
2021/05/03 08:11:43;;;;;;;19.98;13.35;;;10.50;65.20;;;;;;4995448;28;20480;-79
2021/05/03 08:14:09;;;;;;;21.60;15.48;;;10.70;64.90;;;;;;4994371;28;20103;-79
2021/05/03 08:16:37;;;;;;;21.42;16.83;;;10.90;64.80;;;;;;4994068;28;20105;-79
2021/05/03 08:19:03;;;;;;;21.25;15.30;;;11.10;63.20;;;;;;4994210;28;20015;-79
2021/05/03 08:21:28;;;;;;;24.77;15.32;;;11.20;63.20;;;;;;4994155;28;20084;-78
2021/05/03 08:23:54;;;;;;;17.98;13.48;;;11.30;62.40;;;;;;5003752;28;20046;-79
2021/05/03 08:26:19;;;;;;;21.27;16.15;;;11.40;62.50;;;;;;5013713;28;20026;-79
2021/05/03 08:28:48;;;;;;;22.85;16.38;;;11.60;62.60;;;;;;5013659;28;20018;-79
2021/05/03 08:38:35;;;;;;;25.23;15.45;;;12.10;62.00;;;;;;4979850;28;20740;-83
2021/05/03 08:41:02;;;;;;;21.90;14.90;;;12.30;61.10;;;;;;5013766;28;20057;-83
2021/05/03 08:43:30;;;;;;;19.23;15.70;;;12.30;61.00;;;;;;5014609;28;20018;-82
2021/05/03 08:45:56;;;;;;;21.00;13.82;;;12.50;59.80;;;;;;5000996;28;20109;-84
2021/05/03 08:48:34;;;;;;;19.08;14.13;;;12.50;60.80;;;;;;5018719;28;20056;-83
2021/05/03 08:51:16;;;;;;;20.55;15.18;;;12.70;60.30;;;;;;5015483;28;20021;-85
2021/05/03 08:53:43;;;;;;;20.38;15.27;;;12.80;58.70;;;;;;5015460;28;20018;-83
2021/05/03 08:56:10;;;;;;;18.33;14.13;;;12.90;58.80;;;;;;5010305;28;20094;-84
2021/05/03 08:58:40;;;;;;;17.35;14.05;;;12.90;59.00;;;;;;4997697;28;20030;-81
2021/05/03 09:01:06;;;;;;;17.80;12.07;;;13.00;59.20;;;;;;5009545;28;20467;-82
2021/05/03 09:03:35;;;;;;;20.10;14.13;;;13.20;59.70;;;;;;4999185;28;20026;-80
2021/05/03 09:06:04;;;;;;;21.00;14.95;;;13.40;58.40;;;;;;5005244;28;20138;-87
2021/05/03 09:08:31;;;;;;;19.27;13.60;;;13.60;57.00;;;;;;5015190;28;20030;-83
2021/05/03 09:10:57;;;;;;;18.35;14.25;;;13.60;57.60;;;;;;5011186;28;20185;-82
2021/05/03 09:13:29;;;;;;;20.88;16.83;;;13.70;57.60;;;;;;5010069;28;20499;-89
2021/05/03 09:16:15;;;;;;;16.33;11.38;;;13.90;55.30;;;;;;5009907;28;20165;-81
2021/05/03 09:18:41;;;;;;;17.98;14.55;;;14.10;57.60;;;;;;5009262;28;20066;-83
2021/05/03 09:21:21;;;;;;;16.42;13.23;;;14.10;55.90;;;;;;4993441;28;20034;-81
2021/05/03 09:24:01;;;;;;;22.90;14.68;;;14.20;55.40;;;;;;5009788;28;20442;-81
2021/05/03 09:27:01;;;;;;;13.77;10.60;;;14.20;54.20;;;;;;4993136;28;20053;-83
2021/05/03 09:29:38;;;;;;;15.68;11.57;;;14.30;56.00;;;;;;5012406;28;20033;-81
2021/05/03 09:32:09;;;;;;;15.40;11.82;;;14.40;55.50;;;;;;5013646;28;20454;-82
2021/05/03 09:34:43;;;;;;;11.27;7.13;;;14.50;56.10;;;;;;5014175;28;20049;-82
2021/05/03 09:37:18;;;;;;;9.40;6.10;;;14.60;57.90;;;;;;5013109;28;20197;-81
2021/05/03 09:40:28;;;;;;;10.68;7.03;;;14.80;58.90;;;;;;5011975;28;20079;-80
2021/05/03 09:43:03;;;;;;;8.23;6.37;;;15.20;59.00;;;;;;5007403;28;20049;-86
2021/05/03 09:45:30;;;;;;;18.60;13.80;;;15.40;58.70;;;;;;5012204;28;20267;-83
2021/05/03 09:47:57;;;;;;;15.13;10.68;;;15.70;51.80;;;;;;5014021;28;20022;-84
2021/05/03 09:50:29;;;;;;;15.88;12.30;;;15.80;54.50;;;;;;5012333;28;20048;-83
2021/05/03 09:53:04;;;;;;;16.98;13.55;;;15.90;50.30;;;;;;5013036;28;20052;-85
2021/05/03 09:55:41;;;;;;;15.98;12.10;;;16.00;50.20;;;;;;5012673;28;20030;-83
2021/05/03 09:58:25;;;;;;;18.58;12.18;;;15.90;49.50;;;;;;4992646;28;20045;-81
2021/05/03 10:00:54;;;;;;;16.25;12.75;;;15.70;50.80;;;;;;5004092;28;20360;-80
2021/05/03 10:03:35;;;;;;;17.70;12.95;;;15.50;50.20;;;;;;5013214;28;20026;-81
2021/05/03 10:06:01;;;;;;;14.73;11.75;;;15.40;50.00;;;;;;5014127;28;20105;-80
2021/05/03 10:08:27;;;;;;;16.50;13.32;;;15.20;51.00;;;;;;5012538;28;20021;-80
2021/05/03 10:10:56;;;;;;;18.98;13.43;;;15.30;51.20;;;;;;5013115;28;20018;-81
2021/05/03 10:13:23;;;;;;;15.10;11.63;;;15.40;51.80;;;;;;5012996;28;20414;-84
2021/05/03 10:15:50;;;;;;;18.00;12.90;;;15.50;52.60;;;;;;5012149;28;20056;-80
2021/05/03 10:18:19;;;;;;;13.27;9.73;;;15.60;51.10;;;;;;5012145;28;20014;-83
2021/05/03 10:20:45;;;;;;;14.25;11.40;;;15.70;52.50;;;;;;5011716;28;20021;-81
2021/05/03 10:23:13;;;;;;;16.92;13.88;;;15.90;51.90;;;;;;5011542;28;20034;-83
2021/05/03 10:25:40;;;;;;;14.57;12.15;;;15.90;49.30;;;;;;5011506;28;20034;-81
2021/05/03 10:28:06;;;;;;;16.08;12.65;;;15.80;49.80;;;;;;5013254;28;20022;-84
2021/05/03 10:30:43;;;;;;;18.90;11.60;;;15.70;49.40;;;;;;5011507;28;20022;-82
2021/05/03 10:33:12;;;;;;;19.80;12.10;;;15.60;51.20;;;;;;5013085;28;20042;-79
2021/05/03 10:35:41;;;;;;;17.88;11.35;;;15.50;51.50;;;;;;5012538;28;20052;-83
2021/05/03 10:38:30;;;;;;;14.95;12.02;;;15.40;50.80;;;;;;5011152;28;20095;-80
2021/05/03 10:41:00;;;;;;;11.50;9.35;;;15.40;50.20;;;;;;5012459;28;20034;-80
2021/05/03 10:43:42;;;;;;;14.32;10.13;;;15.40;54.10;;;;;;5011547;28;20041;-80
2021/05/03 10:57:15;;;;;;;15.73;11.80;;;15.70;48.00;;;;;;5001273;28;20038;-80
2021/05/03 10:59:58;;;;;;;15.65;11.43;;;15.70;50.50;;;;;;4996531;28;20030;-79
2021/05/03 11:02:45;;;;;;;14.95;12.40;;;15.60;50.00;;;;;;4995639;28;20447;-81
2021/05/03 11:05:25;;;;;;;15.52;10.70;;;15.50;48.40;;;;;;4996805;28;20035;-82
2021/05/03 11:08:03;;;;;;;14.98;10.27;;;15.80;47.20;;;;;;4991804;28;20486;-79
2021/05/03 11:11:04;;;;;;;14.77;11.43;;;15.90;49.40;;;;;;4992774;28;20037;-78
2021/05/03 11:13:36;;;;;;;20.73;12.75;;;15.80;46.60;;;;;;4992674;28;20042;-79
2021/05/03 11:16:31;;;;;;;16.98;12.10;;;15.50;46.70;;;;;;4992969;28;20093;-78
2021/05/03 11:19:00;;;;;;;19.02;11.82;;;15.50;50.60;;;;;;4992781;28;20216;-78
2021/05/03 11:21:40;;;;;;;12.68;9.55;;;15.40;46.00;;;;;;4991161;28;20026;-78
2021/05/03 11:24:20;;;;;;;12.48;10.50;;;15.40;49.20;;;;;;4991550;28;20025;-78
2021/05/03 11:26:57;;;;;;;18.00;11.75;;;15.50;46.50;;;;;;4991498;28;20030;-79
2021/05/03 11:29:29;;;;;;;14.80;10.40;;;15.70;46.30;;;;;;4992467;28;20069;-78
2021/05/03 11:31:55;;;;;;;14.00;9.25;;;15.80;47.40;;;;;;4992469;28;20030;-78
2021/05/03 11:34:28;;;;;;;14.63;10.77;;;15.90;47.80;;;;;;4999744;28;20506;-78
2021/05/03 11:37:00;;;;;;;13.27;9.77;;;15.90;44.80;;;;;;5011537;28;20053;-81
2021/05/03 11:39:57;;;;;;;11.55;8.73;;;15.70;46.60;;;;;;5012052;28;20489;-82
2021/05/03 11:45:14;;;;;;;12.45;7.53;;;15.60;45.90;;;;;;5012300;28;20092;-81
2021/05/03 11:47:41;;;;;;;11.57;7.63;;;15.60;49.30;;;;;;5010526;28;20018;-82
2021/05/03 11:50:07;;;;;;;11.70;8.88;;;15.60;48.80;;;;;;5010604;28;20478;-80
2021/05/03 11:52:35;;;;;;;13.13;9.05;;;15.60;44.90;;;;;;5010288;28;20022;-79
2021/05/03 11:55:13;;;;;;;13.02;8.10;;;15.70;50.70;;;;;;5011671;28;20100;-79
2021/05/03 11:57:43;;;;;;;8.65;5.95;;;15.90;49.00;;;;;;5010601;28;20045;-79
2021/05/03 12:00:11;;;;;;;8.15;6.35;;;16.00;52.50;;;;;;4994108;28;20104;-80
2021/05/03 12:02:36;;;;;;;13.10;8.15;;;16.20;51.30;;;;;;5011413;28;20096;-78
2021/05/03 12:05:11;;;;;;;11.27;8.27;;;16.30;47.30;;;;;;5011498;28;20522;-78
2021/05/03 12:07:37;;;;;;;12.70;7.53;;;16.10;45.40;;;;;;5010946;28;20104;-78
2021/05/03 12:10:05;;;;;;;10.90;7.03;;;15.90;49.20;;;;;;5014171;28;20052;-79
2021/05/03 12:12:35;;;;;;;15.40;9.35;;;15.70;46.50;;;;;;5015009;28;20076;-79
2021/05/03 12:15:03;;;;;;;11.48;8.85;;;15.50;45.80;;;;;;5013766;28;20064;-80
2021/05/03 12:17:30;;;;;;;12.38;9.45;;;15.40;45.90;;;;;;5015486;28;20027;-80
2021/05/03 12:20:03;;;;;;;13.25;10.02;;;15.40;43.60;;;;;;5013730;28;20021;-78
2021/05/03 12:22:29;;;;;;;16.42;8.00;;;15.40;44.00;;;;;;5015110;28;20026;-78
2021/05/03 12:25:05;;;;;;;11.30;9.00;;;15.30;48.60;;;;;;5013504;28;20028;-79
2021/05/03 12:27:33;;;;;;;10.68;8.57;;;15.40;44.60;;;;;;5010056;28;20073;-80
2021/05/03 12:29:59;;;;;;;9.85;7.53;;;15.50;44.50;;;;;;5012323;28;20028;-80
2021/05/03 12:32:30;;;;;;;9.77;6.32;;;15.40;47.50;;;;;;5013716;28;20057;-79
2021/05/03 12:34:58;;;;;;;11.85;8.30;;;15.40;48.90;;;;;;5010657;28;20059;-78
2021/05/03 12:37:29;;;;;;;14.52;9.73;;;15.40;44.70;;;;;;5013548;28;20183;-79
2021/05/03 12:40:05;;;;;;;11.82;8.68;;;15.50;43.20;;;;;;5013215;28;20006;-80
2021/05/03 12:42:44;;;;;;;13.65;11.90;;;15.60;47.40;;;;;;5013738;28;20026;-79
2021/05/03 12:45:34;;;;;;;11.65;8.98;;;15.70;45.50;;;;;;5013701;28;20014;-79
2021/05/03 12:53:35;;;;;;;13.10;8.35;;;16.10;46.40;;;;;;5014747;28;20105;-80
2021/05/03 12:56:13;;;;;;;13.05;10.48;;;16.60;47.50;;;;;;5009872;28;20030;-79
2021/05/03 13:02:00;;;;;;;16.55;10.43;;;17.10;45.00;;;;;;5014605;28;20437;-78
2021/05/03 13:29:35;;;;;;;12.75;6.80;;;16.70;44.80;;;;;;5013858;28;20374;-80
2021/05/03 13:32:01;;;;;;;11.20;8.38;;;16.90;48.10;;;;;;5013629;28;20025;-80
2021/05/03 13:34:26;;;;;;;12.73;7.85;;;17.00;40.50;;;;;;5012602;28;20410;-80
2021/05/03 13:36:52;;;;;;;9.85;8.02;;;16.90;44.20;;;;;;5011907;28;20030;-80
2021/05/03 13:39:18;;;;;;;11.68;8.48;;;16.80;43.30;;;;;;5013655;28;20445;-80
2021/05/03 13:41:45;;;;;;;12.93;8.00;;;16.80;41.90;;;;;;5011904;28;20041;-81
2021/05/03 13:44:17;;;;;;;12.23;7.88;;;16.70;41.00;;;;;;5013505;28;20101;-78
2021/05/03 13:46:43;;;;;;;12.00;7.35;;;16.60;46.40;;;;;;5012031;28;20121;-79
2021/05/03 13:49:09;;;;;;;10.27;7.88;;;16.50;45.30;;;;;;5012591;28;20370;-78
2021/05/03 13:51:35;;;;;;;10.98;8.13;;;16.40;45.10;;;;;;5012538;28;20454;-79
2021/05/03 13:54:02;;;;;;;14.65;9.38;;;16.30;42.60;;;;;;5013467;28;20043;-81
2021/05/03 13:56:28;;;;;;;9.68;7.35;;;16.20;43.30;;;;;;5005287;28;20022;-79
2021/05/03 13:58:54;;;;;;;10.88;8.35;;;16.20;45.90;;;;;;4991955;28;20029;-78